Map

Track Data

SID SEASON NUMBER BASIN SUBBASIN NAME ISO_TIME NATURE LAT LON WMO_WIND WMO_PRES WMO_AGENCY TRACK_TYPE DIST2LAND LANDFALL IFLAG USA_AGENCY USA_ATCF_ID USA_LAT USA_LON USA_RECORD USA_STATUS USA_WIND USA_PRES USA_SSHS USA_R34_NE USA_R34_SE USA_R34_SW USA_R34_NW USA_R50_NE USA_R50_SE USA_R50_SW USA_R50_NW USA_R64_NE USA_R64_SE USA_R64_SW USA_R64_NW USA_POCI USA_ROCI USA_RMW USA_EYE TOKYO_LAT TOKYO_LON TOKYO_GRADE TOKYO_WIND TOKYO_PRES TOKYO_R50_DIR TOKYO_R50_LONG TOKYO_R50_SHORT TOKYO_R30_DIR TOKYO_R30_LONG TOKYO_R30_SHORT TOKYO_LAND CMA_LAT CMA_LON CMA_CAT CMA_WIND CMA_PRES HKO_LAT HKO_LON HKO_CAT HKO_WIND HKO_PRES NEWDELHI_LAT NEWDELHI_LON NEWDELHI_GRADE NEWDELHI_WIND NEWDELHI_PRES NEWDELHI_CI NEWDELHI_DP NEWDELHI_POCI REUNION_LAT REUNION_LON REUNION_TYPE REUNION_WIND REUNION_PRES REUNION_TNUM REUNION_CI REUNION_RMW REUNION_R34_NE REUNION_R34_SE REUNION_R34_SW REUNION_R34_NW REUNION_R50_NE REUNION_R50_SE REUNION_R50_SW REUNION_R50_NW REUNION_R64_NE REUNION_R64_SE REUNION_R64_SW REUNION_R64_NW BOM_LAT BOM_LON BOM_TYPE BOM_WIND BOM_PRES BOM_TNUM BOM_CI BOM_RMW BOM_R34_NE BOM_R34_SE BOM_R34_SW BOM_R34_NW BOM_R50_NE BOM_R50_SE BOM_R50_SW BOM_R50_NW BOM_R64_NE BOM_R64_SE BOM_R64_SW BOM_R64_NW BOM_ROCI BOM_POCI BOM_EYE BOM_POS_METHOD BOM_PRES_METHOD NADI_LAT NADI_LON NADI_CAT NADI_WIND NADI_PRES WELLINGTON_LAT WELLINGTON_LON WELLINGTON_WIND WELLINGTON_PRES DS824_LAT DS824_LON DS824_STAGE DS824_WIND DS824_PRES TD9636_LAT TD9636_LON TD9636_STAGE TD9636_WIND TD9636_PRES TD9635_LAT TD9635_LON TD9635_WIND TD9635_PRES TD9635_ROCI NEUMANN_LAT NEUMANN_LON NEUMANN_CLASS NEUMANN_WIND NEUMANN_PRES MLC_LAT MLC_LON MLC_CLASS MLC_WIND MLC_PRES USA_GUST BOM_GUST BOM_GUST_PER REUNION_GUST REUNION_GUST_PER USA_SEAHGT USA_SEARAD_NE USA_SEARAD_SE USA_SEARAD_SW USA_SEARAD_NW STORM_SPEED STORM_DIR
1971317N12282 1971 150 NA CS LAURA 1971-11-12 12:00:00 TS 12.0000 -78.5000 25 hurdat_atl main 287 285 O_____________ hurdat_atl AL221971 12.0000 -78.5000 TD 25 -1 4 311
1971317N12282 1971 150 NA CS LAURA 1971-11-12 15:00:00 TS 12.1451 -78.6699 main 294 294 P_____________ AL221971 12.1451 -78.6699 TD 27 -1 4 316
1971317N12282 1971 150 NA CS LAURA 1971-11-12 18:00:00 TS 12.3000 -78.8000 30 hurdat_atl main 315 315 O_____________ hurdat_atl AL221971 12.3000 -78.8000 TD 30 -1 4 329
1971317N12282 1971 150 NA CS LAURA 1971-11-12 21:00:00 TS 12.4774 -78.8776 main 336 336 P_____________ AL221971 12.4774 -78.8776 TD 30 -1 4 334
1971317N12282 1971 150 NA CS LAURA 1971-11-13 00:00:00 TS 12.7000 -79.0000 30 hurdat_atl main 358 358 O_____________ hurdat_atl AL221971 12.7000 -79.0000 TD 30 -1 7 322
1971317N12282 1971 150 NA CS LAURA 1971-11-13 03:00:00 TS 12.9926 -79.2849 main 391 391 P_____________ AL221971 12.9926 -79.2849 TD 30 -1 8 316
1971317N12282 1971 150 NA CS LAURA 1971-11-13 06:00:00 TS 13.3000 -79.6000 30 hurdat_atl main 404 377 O_____________ hurdat_atl AL221971 13.3000 -79.6000 TD 30 -1 7 318
1971317N12282 1971 150 NA CS LAURA 1971-11-13 09:00:00 TS 13.5424 -79.8002 main 377 349 P_____________ AL221971 13.5424 -79.8002 TD 30 -1 6 322
1971317N12282 1971 150 NA CS LAURA 1971-11-13 12:00:00 TS 13.8000 -80.0000 30 hurdat_atl main 349 313 O_____________ hurdat_atl AL221971 13.8000 -80.0000 TD 30 -1 8 322
1971317N12282 1971 150 NA CS LAURA 1971-11-13 15:00:00 TS 14.1350 -80.2775 main 313 274 P_____________ AL221971 14.1350 -80.2775 TD 30 -1 9 320
1971317N12282 1971 150 NA CS LAURA 1971-11-13 18:00:00 TS 14.5000 -80.6000 30 hurdat_atl main 274 237 O_____________ hurdat_atl AL221971 14.5000 -80.6000 TD 30 -1 10 318
1971317N12282 1971 150 NA CS LAURA 1971-11-13 21:00:00 TS 14.8425 -80.9426 main 237 194 P_____________ AL221971 14.8425 -80.9426 TD 30 -1 10 316
1971317N12282 1971 150 NA CS LAURA 1971-11-14 00:00:00 TS 15.2000 -81.3000 30 hurdat_atl main 194 170 O_____________ hurdat_atl AL221971 15.2000 -81.3000 TD 30 -1 10 318
1971317N12282 1971 150 NA CS LAURA 1971-11-14 03:00:00 TS 15.6075 -81.6649 main 164 156 P_____________ AL221971 15.6075 -81.6649 TD 30 -1 11 320
1971317N12282 1971 150 NA CS LAURA 1971-11-14 06:00:00 TS 16.0000 -82.0000 30 hurdat_atl main 162 162 O_____________ hurdat_atl AL221971 16.0000 -82.0000 TD 30 -1 9 321
1971317N12282 1971 150 NA CS LAURA 1971-11-14 09:00:00 TS 16.2998 -82.2504 main 162 162 P_____________ AL221971 16.2998 -82.2504 TD 32 -1 8 321
1971317N12282 1971 150 NA CS LAURA 1971-11-14 12:00:00 TS 16.6000 -82.5000 35 1004 hurdat_atl main 174 174 O_____________ hurdat_atl AL221971 16.6000 -82.5000 TS 35 1004 0 9 320
1971317N12282 1971 150 NA CS LAURA 1971-11-14 15:00:00 TS 16.9851 -82.8573 main 195 195 P_____________ AL221971 16.9851 -82.8573 TS 37 0 10 320
1971317N12282 1971 150 NA CS LAURA 1971-11-14 18:00:00 TS 17.4000 -83.2000 40 hurdat_atl main 214 214 O_____________ hurdat_atl AL221971 17.4000 -83.2000 TS 40 0 10 326
1971317N12282 1971 150 NA CS LAURA 1971-11-14 21:00:00 TS 17.7999 -83.4376 main 243 239 P_____________ AL221971 17.7999 -83.4376 TS 40 0 9 334
1971317N12282 1971 150 NA CS LAURA 1971-11-15 00:00:00 TS 18.2000 -83.6000 40 hurdat_atl main 278 278 O_____________ hurdat_atl AL221971 18.2000 -83.6000 TS 40 0 8 342
1971317N12282 1971 150 NA CS LAURA 1971-11-15 03:00:00 TS 18.6000 -83.7151 main 319 287 P_____________ AL221971 18.6000 -83.7151 TS 42 0 8 347
1971317N12282 1971 150 NA CS LAURA 1971-11-15 06:00:00 TS 19.0000 -83.8000 45 hurdat_atl main 287 251 O_____________ hurdat_atl AL221971 19.0000 -83.8000 TS 45 0 8 348
1971317N12282 1971 150 NA CS LAURA 1971-11-15 09:00:00 TS 19.4150 -83.9075 main 251 216 P_____________ AL221971 19.4150 -83.9075 TS 50 0 8 347
1971317N12282 1971 150 NA CS LAURA 1971-11-15 12:00:00 TS 19.8000 -84.0000 55 hurdat_atl main 216 193 O_____________ hurdat_atl AL221971 19.8000 -84.0000 TS 55 0 7 348
1971317N12282 1971 150 NA CS LAURA 1971-11-15 15:00:00 TS 20.1150 -84.0725 main 193 161 P_____________ AL221971 20.1150 -84.0725 TS 57 0 6 351
1971317N12282 1971 150 NA CS LAURA 1971-11-15 18:00:00 TS 20.4000 -84.1000 60 hurdat_atl main 161 129 O_____________ hurdat_atl AL221971 20.4000 -84.1000 TS 60 0 6 359
1971317N12282 1971 150 NA CS LAURA 1971-11-15 21:00:00 TS 20.7150 -84.0725 main 129 100 P_____________ AL221971 20.7150 -84.0725 TS 60 0 6 9
1971317N12282 1971 150 NA CS LAURA 1971-11-16 00:00:00 TS 21.0000 -84.0000 60 998 hurdat_atl main 100 78 O_____________ hurdat_atl AL221971 21.0000 -84.0000 TS 60 998 0 5 17
1971317N12282 1971 150 NA CS LAURA 1971-11-16 03:00:00 TS 21.2225 -83.9150 main 78 59 P_____________ AL221971 21.2225 -83.9150 TS 60 0 4 25
1971317N12282 1971 150 NA CS LAURA 1971-11-16 06:00:00 TS 21.4000 -83.8000 60 hurdat_atl main 59 45 O_____________ hurdat_atl AL221971 21.4000 -83.8000 TS 60 0 5 34
1971317N12282 1971 150 NA CS LAURA 1971-11-16 09:00:00 TS 21.6025 -83.6426 main 53 42 P_____________ AL221971 21.6025 -83.6426 TS 60 0 4 43
1971317N12282 1971 150 NA CS LAURA 1971-11-16 12:00:00 TS 21.7000 -83.5000 60 hurdat_atl main 42 38 O_____________ hurdat_atl AL221971 21.7000 -83.5000 TS 60 0 2 92
1971317N12282 1971 150 NA CS LAURA 1971-11-16 15:00:00 TS 21.5950 -83.4349 main 38 38 P_____________ AL221971 21.5950 -83.4349 TS 60 0 3 163
1971317N12282 1971 150 NA CS LAURA 1971-11-16 18:00:00 TS 21.4000 -83.4000 60 hurdat_atl main 42 38 O_____________ hurdat_atl AL221971 21.4000 -83.4000 TS 60 0 3 164
1971317N12282 1971 150 NA CS LAURA 1971-11-16 21:00:00 TS 21.2725 -83.3274 main 38 38 P_____________ AL221971 21.2725 -83.3274 TS 60 0 3 163
1971317N12282 1971 150 NA CS LAURA 1971-11-17 00:00:00 TS 21.1000 -83.3000 60 995 hurdat_atl main 54 54 O_____________ hurdat_atl AL221971 21.1000 -83.3000 TS 60 995 0 5 185
1971317N12282 1971 150 NA CS LAURA 1971-11-17 03:00:00 TS 20.8075 -83.3626 main 88 88 P_____________ AL221971 20.8075 -83.3626 TS 60 994 0 6 197
1971317N12282 1971 150 NA CS LAURA 1971-11-17 06:00:00 TS 20.5000 -83.5000 60 hurdat_atl main 123 123 I_____________ hurdat_atl AL221971 20.5000 -83.5000 TS 60 994 0 6 210
1971317N12282 1971 150 NA CS LAURA 1971-11-17 09:00:00 TS 20.2700 -83.6925 main 152 152 P_____________ AL221971 20.2700 -83.6925 TS 60 994 0 6 223
1971317N12282 1971 150 NA CS LAURA 1971-11-17 12:00:00 TS 20.1000 -83.9000 60 994 hurdat_atl main 182 182 O_____________ hurdat_atl AL221971 20.1000 -83.9000 TS 60 994 0 5 231
1971317N12282 1971 150 NA CS LAURA 1971-11-17 15:00:00 TS 19.9850 -84.0649 main 203 203 P_____________ AL221971 19.9850 -84.0649 TS 60 995 0 3 235
1971317N12282 1971 150 NA CS LAURA 1971-11-17 18:00:00 TS 19.9000 -84.2000 60 996 hurdat_atl main 214 214 O_____________ hurdat_atl AL221971 19.9000 -84.2000 TS 60 996 0 3 227
1971317N12282 1971 150 NA CS LAURA 1971-11-17 21:00:00 TS 19.7775 -84.3000 main 224 224 P_____________ AL221971 19.7775 -84.3000 TS 57 997 0 3 224
1971317N12282 1971 150 NA CS LAURA 1971-11-18 00:00:00 TS 19.7000 -84.4000 55 hurdat_atl main 235 234 I_____________ hurdat_atl AL221971 19.7000 -84.4000 TS 55 998 0 2 258
1971317N12282 1971 150 NA CS LAURA 1971-11-18 03:00:00 TS 19.7275 -84.5425 main 234 223 P_____________ AL221971 19.7275 -84.5425 TS 52 999 0 3 290
1971317N12282 1971 150 NA CS LAURA 1971-11-18 06:00:00 TS 19.8000 -84.7000 50 1000 hurdat_atl main 223 212 O_____________ hurdat_atl AL221971 19.8000 -84.7000 TS 50 1000 0 3 294
1971317N12282 1971 150 NA CS LAURA 1971-11-18 09:00:00 TS 19.8575 -84.8575 main 212 212 P_____________ AL221971 19.8575 -84.8575 TS 50 1000 0 3 290
1971317N12282 1971 150 NA CS LAURA 1971-11-18 12:00:00 TS 19.9000 -85.0000 50 hurdat_atl main 213 212 I_____________ hurdat_atl AL221971 19.9000 -85.0000 TS 50 1000 0 2 286
1971317N12282 1971 150 NA CS LAURA 1971-11-18 15:00:00 TS 19.9225 -85.1000 main 212 203 P_____________ AL221971 19.9225 -85.1000 TS 50 1000 0 2 270
1971317N12282 1971 150 NA CS LAURA 1971-11-18 18:00:00 TS 19.9000 -85.2000 50 1001 hurdat_atl main 203 192 O_____________ hurdat_atl AL221971 19.9000 -85.2000 TS 50 1001 0 3 248
1971317N12282 1971 150 NA CS LAURA 1971-11-18 21:00:00 TS 19.8225 -85.3651 main 192 183 P_____________ AL221971 19.8225 -85.3651 TS 50 1002 0 3 235
1971317N12282 1971 150 NA CS LAURA 1971-11-19 00:00:00 TS 19.7000 -85.5000 50 1003 hurdat_atl main 190 190 O_____________ hurdat_atl AL221971 19.7000 -85.5000 TS 50 1003 0 3 209
1971317N12282 1971 150 NA CS LAURA 1971-11-19 03:00:00 TS 19.5575 -85.5225 main 198 198 P_____________ AL221971 19.5575 -85.5225 TS 47 0 3 0
1971317N12282 1971 150 NA CS LAURA 1971-11-19 06:00:00 TS 19.4000 -85.5000 45 hurdat_atl main 199 199 O_____________ hurdat_atl AL221971 19.4000 -85.5000 TS 45 0 3 171
1971317N12282 1971 150 NA CS LAURA 1971-11-19 09:00:00 TS 19.2650 -85.4849 main 200 200 P_____________ AL221971 19.2650 -85.4849 TS 45 0 3 0
1971317N12282 1971 150 NA CS LAURA 1971-11-19 12:00:00 TS 19.1000 -85.5000 45 hurdat_atl main 204 200 O_____________ hurdat_atl AL221971 19.1000 -85.5000 TS 45 0 4 191
1971317N12282 1971 150 NA CS LAURA 1971-11-19 15:00:00 TS 18.8575 -85.5700 main 200 197 P_____________ AL221971 18.8575 -85.5700 TS 45 0 5 201
1971317N12282 1971 150 NA CS LAURA 1971-11-19 18:00:00 TS 18.6000 -85.7000 45 1000 hurdat_atl main 200 187 O_____________ hurdat_atl AL221971 18.6000 -85.7000 TS 45 1000 0 6 212
1971317N12282 1971 150 NA CS LAURA 1971-11-19 21:00:00 TS 18.3850 -85.8850 main 187 174 P_____________ AL221971 18.3850 -85.8850 TS 42 1000 0 6 223
1971317N12282 1971 150 NA CS LAURA 1971-11-20 00:00:00 TS 18.2000 -86.1000 40 hurdat_atl main 174 158 I_____________ hurdat_atl AL221971 18.2000 -86.1000 TS 40 1000 0 5 227
1971317N12282 1971 150 NA CS LAURA 1971-11-20 03:00:00 TS 18.0424 -86.2774 main 160 141 P_____________ AL221971 18.0424 -86.2774 TS 45 1000 0 5 232
1971317N12282 1971 150 NA CS LAURA 1971-11-20 06:00:00 TS 17.9000 -86.5000 50 1000 hurdat_atl main 141 114 O_____________ hurdat_atl AL221971 17.9000 -86.5000 TS 50 1000 0 6 242
1971317N12282 1971 150 NA CS LAURA 1971-11-20 09:00:00 TS 17.7576 -86.8425 main 114 92 P_____________ AL221971 17.7576 -86.8425 TS 52 1000 0 7 246
1971317N12282 1971 150 NA CS LAURA 1971-11-20 12:00:00 TS 17.6000 -87.2000 55 1000 hurdat_atl main 92 75 O_____________ hurdat_atl AL221971 17.6000 -87.2000 TS 55 1000 0 7 240
1971317N12282 1971 150 NA CS LAURA 1971-11-20 15:00:00 TS 17.4149 -87.4649 main 75 57 P_____________ AL221971 17.4149 -87.4649 TS 57 998 0 6 230
1971317N12282 1971 150 NA CS LAURA 1971-11-20 18:00:00 TS 17.2000 -87.7000 60 997 hurdat_atl main 57 31 O_____________ hurdat_atl AL221971 17.2000 -87.7000 TS 60 997 0 7 225
1971317N12282 1971 150 NA CS LAURA 1971-11-20 21:00:00 TS 16.9500 -87.9575 main 21 15 P_____________ AL221971 16.9500 -87.9575 TS 60 997 0 7 224
1971317N12282 1971 150 NA CS LAURA 1971-11-21 00:00:00 TS 16.7000 -88.2000 60 997 hurdat_atl main 15 0 O_____________ hurdat_atl AL221971 16.7000 -88.2000 TS 60 997 0 6 223
1971317N12282 1971 150 NA CS LAURA 1971-11-21 03:00:00 TS 16.4850 -88.4074 main 0 0 P_____________ AL221971 16.4850 -88.4074 TS 60 0 6 224
1971317N12282 1971 150 NA CS LAURA 1971-11-21 06:00:00 TS 16.3000 -88.6000 60 hurdat_atl main 0 0 O_____________ hurdat_atl AL221971 16.3000 -88.6000 TS 60 0 5 228
1971317N12282 1971 150 NA CS LAURA 1971-11-21 09:00:00 TS 16.1425 -88.7999 main 0 0 P_____________ AL221971 16.1425 -88.7999 TS 60 0 5 232
1971317N12282 1971 150 NA NA LAURA 1971-11-21 12:00:00 TS 16.0000 -89.0000 60 hurdat_atl main 0 0 O_____________ hurdat_atl AL221971 16.0000 -89.0000 TS 60 0 5 232
1971317N12282 1971 150 NA NA LAURA 1971-11-21 15:00:00 TS 15.8574 -89.1849 main 0 0 P_____________ AL221971 15.8574 -89.1849 TS 60 0 5 232
1971317N12282 1971 150 NA NA LAURA 1971-11-21 18:00:00 TS 15.7000 -89.4000 60 hurdat_atl main 0 0 O_____________ hurdat_atl AL221971 15.7000 -89.4000 TS 60 0 6 234
1971317N12282 1971 150 NA NA LAURA 1971-11-21 21:00:00 TS 15.5101 -89.6802 main 0 0 P_____________ AL221971 15.5101 -89.6802 TS 45 0 7 235
1971317N12282 1971 150 NA NA LAURA 1971-11-22 00:00:00 TS 15.3000 -90.0000 30 hurdat_atl main 0 O_____________ hurdat_atl AL221971 15.3000 -90.0000 TD 30 -1 7 236

About IBTrACS Database

This database is a web-friendly format of International Best Track Archive for Climate Stewardship (IBTrACS), a global best track data archive curated by NOAA dating back to 1842.

Updated: 2021-11-26